Terminal Aerodrome Forecast
Issued by NWS

Home | Current Version | Previous Version | Text Only | Print | Product List | Glossary On
Versions: 1 2 3 4 5 6 7 8 9 10 11 12
830
FTUS42 TJSJ 201139
TAFJPS
TAF
TJPS 201139Z 2012/2112 VRB04KT P6SM FEW030
     FM201500 18010KT P6SM FEW030
     FM202200 07005KT P6SM SKC
      AMD NOT SKED TIL 210300=

USA.gov is the U.S. government's official web portal to all federal, state and local government web resources and services.